Time,TemperatureF,DewpointF,PressureIn,WindDirection,WindDirectionDegrees,WindSpeedMPH,WindSpeedGustMPH,Humidity,HourlyPrecipIn,Conditions,Clouds,dailyrainin,SoftwareType,DateUTC
2013-01-24 00:00:00,13.1,9.5,30.70,SSE,152,0.0,0.0,85,0.00,,,0.00,WeatherCatV1.11B39,2013-01-24 07:00:00,
2013-01-24 00:05:00,12.7,9.3,30.70,SSE,158,1.0,1.0,86,0.00,,,0.00,WeatherCatV1.11B39,2013-01-24 07:05:00,
2013-01-24 00:10:00,12.4,9.3,30.70,SSE,148,0.0,1.0,87,0.00,,,0.00,WeatherCatV1.11B39,2013-01-24 07:10:00,
2013-01-24 00:15:00,12.1,9.0,30.70,ESE,117,0.0,1.0,87,0.00,,,0.00,WeatherCatV1.11B39,2013-01-24 07:15:00,
2013-01-24 00:20:00,12.0,8.6,30.70,SE,144,1.0,3.0,86,0.00,,,0.00,WeatherCatV1.11B39,2013-01-24 07:20:00,
2013-01-24 00:25:00,11.7,8.1,30.69,SE,143,0.0,1.0,85,0.00,,,0.00,WeatherCatV1.11B39,2013-01-24 07:25:00,
2013-01-24 00:30:00,11.8,8.2,30.69,ESE,122,0.0,0.0,85,0.00,,,0.00,WeatherCatV1.11B39,2013-01-24 07:30:00,
2013-01-24 00:35:00,12.0,8.4,30.69,East,84,0.0,1.0,85,0.00,,,0.00,WeatherCatV1.11B39,2013-01-24 07:35:00,
2013-01-24 00:40:00,11.9,8.3,30.69,WSW,239,1.0,1.0,85,0.00,,,0.00,WeatherCatV1.11B39,2013-01-24 07:40:00,
2013-01-24 00:45:00,11.7,8.3,30.69,SW,226,0.0,1.0,86,0.00,,,0.00,WeatherCatV1.11B39,2013-01-24 07:45:00,
2013-01-24 00:50:00,11.5,8.1,30.69,SW,226,0.0,0.0,86,0.00,,,0.00,WeatherCatV1.11B39,2013-01-24 07:50:00,
2013-01-24 00:55:00,11.5,8.1,30.68,SSE,166,1.0,2.0,86,0.00,,,0.00,WeatherCatV1.11B39,2013-01-24 07:55:00,
2013-01-24 01:00:00,11.5,8.4,30.68,SE,132,1.0,1.0,87,0.00,,,0.00,WeatherCatV1.11B39,2013-01-24 08:00:00,
2013-01-24 01:05:00,11.6,8.5,30.68,South,175,1.0,1.0,87,0.00,,,0.00,WeatherCatV1.11B39,2013-01-24 08:05:00,
2013-01-24 01:10:00,11.6,8.2,30.68,South,188,0.0,0.0,86,0.00,,,0.00,WeatherCatV1.11B39,2013-01-24 08:10:00,
2013-01-24 01:15:00,11.5,8.1,30.68,South,191,1.0,1.0,86,0.00,,,0.00,WeatherCatV1.11B39,2013-01-24 08:15:00,
2013-01-24 01:20:00,11.9,8.8,30.68,SE,143,0.0,2.0,87,0.00,,,0.00,WeatherCatV1.11B39,2013-01-24 08:20:00,
2013-01-24 01:25:00,12.2,8.8,30.67,NNE,29,0.0,0.0,86,0.00,,,0.00,WeatherCatV1.11B39,2013-01-24 08:25:00,
2013-01-24 01:30:00,12.5,8.9,30.68,NNE,29,0.0,0.0,85,0.00,,,0.00,WeatherCatV1.11B39,2013-01-24 08:30:00,
2013-01-24 01:35:00,12.6,9.2,30.68,West,266,0.0,0.0,86,0.00,,,0.00,WeatherCatV1.11B39,2013-01-24 08:35:00,
2013-01-24 01:40:00,12.7,9.3,30.68,West,267,0.0,1.0,86,0.00,,,0.00,WeatherCatV1.11B39,2013-01-24 08:40:00,
2013-01-24 01:45:00,12.7,9.3,30.68,SE,135,0.0,2.0,86,0.00,,,0.00,WeatherCatV1.11B39,2013-01-24 08:45:00,
2013-01-24 01:50:00,12.7,9.3,30.68,SE,135,0.0,0.0,86,0.00,,,0.00,WeatherCatV1.11B39,2013-01-24 08:50:00,
2013-01-24 01:55:00,12.7,9.1,30.68,South,170,0.0,2.0,85,0.00,,,0.00,WeatherCatV1.11B39,2013-01-24 08:55:00,
2013-01-24 02:00:00,12.8,8.9,30.68,SSE,148,1.0,1.0,84,0.00,,,0.00,WeatherCatV1.11B39,2013-01-24 09:00:00,
2013-01-24 02:05:00,13.0,9.1,30.68,ESE,114,1.0,1.0,84,0.00,,,0.00,WeatherCatV1.11B39,2013-01-24 09:05:00,
2013-01-24 02:10:00,13.2,9.6,30.68,SSE,148,1.0,2.0,85,0.00,,,0.00,WeatherCatV1.11B39,2013-01-24 09:10:00,
2013-01-24 02:15:00,13.3,9.7,30.67,SSE,160,0.0,1.0,85,0.00,,,0.00,WeatherCatV1.11B39,2013-01-24 09:15:00,
2013-01-24 02:20:00,13.5,9.8,30.68,SSW,212,0.0,0.0,85,0.00,,,0.00,WeatherCatV1.11B39,2013-01-24 09:20:00,
2013-01-24 02:25:00,13.5,9.6,30.67,SE,146,0.0,0.0,84,0.00,,,0.00,WeatherCatV1.11B39,2013-01-24 09:25:00,
2013-01-24 02:30:00,13.6,9.7,30.68,SSE,148,0.0,0.0,84,0.00,,,0.00,WeatherCatV1.11B39,2013-01-24 09:30:00,
2013-01-24 02:35:00,13.6,9.7,30.68,SSE,148,0.0,0.0,84,0.00,,,0.00,WeatherCatV1.11B39,2013-01-24 09:35:00,
2013-01-24 02:40:00,13.6,9.7,30.68,SSE,148,0.0,0.0,84,0.00,,,0.00,WeatherCatV1.11B39,2013-01-24 09:40:00,
2013-01-24 02:45:00,13.7,9.8,30.68,SSE,148,0.0,0.0,84,0.00,,,0.00,WeatherCatV1.11B39,2013-01-24 09:45:00,
2013-01-24 02:50:00,13.7,9.8,30.68,ESE,122,0.0,0.0,84,0.00,,,0.00,WeatherCatV1.11B39,2013-01-24 09:50:00,
2013-01-24 02:55:00,13.6,9.9,30.68,SW,214,2.0,2.0,85,0.00,,,0.00,WeatherCatV1.11B39,2013-01-24 09:55:00,
2013-01-24 03:01:00,13.1,9.2,30.68,South,177,1.0,1.0,84,0.00,,,0.00,WeatherCatV1.11B39,2013-01-24 10:01:00,
2013-01-24 03:06:00,13.0,9.4,30.68,South,169,0.0,1.0,85,0.00,,,0.00,WeatherCatV1.11B39,2013-01-24 10:06:00,
2013-01-24 03:11:00,13.0,9.4,30.67,SW,225,0.0,0.0,85,0.00,,,0.00,WeatherCatV1.11B39,2013-01-24 10:11:00,
2013-01-24 03:16:00,12.8,9.2,30.68,ESE,102,1.0,1.0,85,0.00,,,0.00,WeatherCatV1.11B39,2013-01-24 10:16:00,
2013-01-24 03:21:00,12.7,9.1,30.68,ENE,57,0.0,0.0,85,0.00,,,0.00,WeatherCatV1.11B39,2013-01-24 10:21:00,
2013-01-24 03:26:00,12.5,9.1,30.68,NE,56,0.0,0.0,86,0.00,,,0.00,WeatherCatV1.11B39,2013-01-24 10:26:00,
2013-01-24 03:31:00,12.3,8.9,30.67,SW,225,0.0,0.0,86,0.00,,,0.00,WeatherCatV1.11B39,2013-01-24 10:31:00,
2013-01-24 03:36:00,12.1,8.7,30.67,SW,225,0.0,0.0,86,0.00,,,0.00,WeatherCatV1.11B39,2013-01-24 10:36:00,
2013-01-24 03:41:00,12.1,9.0,30.67,SSE,150,0.0,0.0,87,0.00,,,0.00,WeatherCatV1.11B39,2013-01-24 10:41:00,
2013-01-24 03:46:00,12.1,9.0,30.67,SSW,198,0.0,1.0,87,0.00,,,0.00,WeatherCatV1.11B39,2013-01-24 10:46:00,
2013-01-24 03:51:00,12.1,9.2,30.66,SSE,155,2.0,2.0,88,0.00,,,0.00,WeatherCatV1.11B39,2013-01-24 10:51:00,
2013-01-24 03:56:00,12.1,9.0,30.67,SW,224,0.0,1.0,87,0.00,,,0.00,WeatherCatV1.11B39,2013-01-24 10:56:00,
2013-01-24 04:01:00,12.1,8.7,30.67,SSE,158,0.0,0.0,86,0.00,,,0.00,WeatherCatV1.11B39,2013-01-24 11:01:00,
2013-01-24 04:06:00,12.1,8.7,30.67,SSE,158,0.0,0.0,86,0.00,,,0.00,WeatherCatV1.11B39,2013-01-24 11:06:00,
2013-01-24 04:11:00,12.0,8.6,30.67,SSE,158,0.0,0.0,86,0.00,,,0.00,WeatherCatV1.11B39,2013-01-24 11:11:00,
2013-01-24 04:16:00,11.8,8.4,30.67,SSE,158,0.0,0.0,86,0.00,,,0.00,WeatherCatV1.11B39,2013-01-24 11:16:00,
2013-01-24 04:21:00,11.7,8.6,30.67,South,169,1.0,2.0,87,0.00,,,0.00,WeatherCatV1.11B39,2013-01-24 11:21:00,
2013-01-24 04:26:00,11.4,8.6,30.67,South,181,1.0,1.0,88,0.00,,,0.00,WeatherCatV1.11B39,2013-01-24 11:26:00,
2013-01-24 04:31:00,11.3,8.2,30.67,ESE,113,0.0,0.0,87,0.00,,,0.00,WeatherCatV1.11B39,2013-01-24 11:31:00,
2013-01-24 04:36:00,11.4,8.3,30.68,WNW,300,0.0,1.0,87,0.00,,,0.00,WeatherCatV1.11B39,2013-01-24 11:36:00,
2013-01-24 04:41:00,11.5,8.4,30.67,WNW,300,0.0,0.0,87,0.00,,,0.00,WeatherCatV1.11B39,2013-01-24 11:41:00,
2013-01-24 04:46:00,11.7,8.6,30.67,WNW,300,0.0,0.0,87,0.00,,,0.00,WeatherCatV1.11B39,2013-01-24 11:46:00,
2013-01-24 04:51:00,11.9,9.0,30.67,SW,218,1.0,4.0,88,0.00,,,0.00,WeatherCatV1.11B39,2013-01-24 11:51:00,
2013-01-24 04:56:00,11.9,9.0,30.67,SW,228,0.0,1.0,88,0.00,,,0.00,WeatherCatV1.11B39,2013-01-24 11:56:00,
2013-01-24 05:00:00,11.9,9.0,30.68,ESE,114,0.0,1.0,88,0.00,,,0.00,WeatherCatV1.11B39,2013-01-24 12:00:00,
2013-01-24 05:05:00,12.2,9.1,30.67,ENE,69,2.0,2.0,87,0.00,,,0.00,WeatherCatV1.11B39,2013-01-24 12:05:00,
2013-01-24 05:10:00,12.5,9.4,30.67,NW,324,0.0,0.0,87,0.00,,,0.00,WeatherCatV1.11B39,2013-01-24 12:10:00,
2013-01-24 05:15:00,12.7,9.6,30.67,ESE,110,0.0,1.0,87,0.00,,,0.00,WeatherCatV1.11B39,2013-01-24 12:15:00,
2013-01-24 05:20:00,12.8,9.4,30.67,SE,134,1.0,1.0,86,0.00,,,0.00,WeatherCatV1.11B39,2013-01-24 12:20:00,
2013-01-24 05:25:00,12.8,9.4,30.67,SSW,199,1.0,2.0,86,0.00,,,0.00,WeatherCatV1.11B39,2013-01-24 12:25:00,
2013-01-24 05:30:00,12.7,9.3,30.67,WSW,248,1.0,1.0,86,0.00,,,0.00,WeatherCatV1.11B39,2013-01-24 12:30:00,
2013-01-24 05:35:00,12.8,9.2,30.68,SW,220,1.0,2.0,85,0.00,,,0.00,WeatherCatV1.11B39,2013-01-24 12:35:00,
2013-01-24 05:40:00,13.0,9.4,30.67,East,95,0.0,1.0,85,0.00,,,0.00,WeatherCatV1.11B39,2013-01-24 12:40:00,
2013-01-24 05:45:00,13.1,9.5,30.67,SSE,160,0.0,0.0,85,0.00,,,0.00,WeatherCatV1.11B39,2013-01-24 12:45:00,
2013-01-24 05:50:00,13.3,9.7,30.66,NNE,33,1.0,1.0,85,0.00,,,0.00,WeatherCatV1.11B39,2013-01-24 12:50:00,
2013-01-24 05:55:00,13.5,9.8,30.67,SSW,209,0.0,1.0,85,0.00,,,0.00,WeatherCatV1.11B39,2013-01-24 12:55:00,
2013-01-24 06:00:00,13.6,9.9,30.66,SSE,160,1.0,2.0,85,0.00,,,0.00,WeatherCatV1.11B39,2013-01-24 13:00:00,
2013-01-24 06:05:00,13.6,9.7,30.66,WSW,242,2.0,3.0,84,0.00,,,0.00,WeatherCatV1.11B39,2013-01-24 13:05:00,
2013-01-24 06:10:00,13.8,9.9,30.65,SSE,158,0.0,1.0,84,0.00,,,0.00,WeatherCatV1.11B39,2013-01-24 13:10:00,
2013-01-24 06:15:00,14.0,9.8,30.65,SW,228,0.0,2.0,83,0.00,,,0.00,WeatherCatV1.11B39,2013-01-24 13:15:00,
2013-01-24 06:20:00,14.2,10.0,30.65,NNE,22,1.0,1.0,83,0.00,,,0.00,WeatherCatV1.11B39,2013-01-24 13:20:00,
2013-01-24 06:25:00,14.4,10.2,30.64,NNE,22,0.0,0.0,83,0.00,,,0.00,WeatherCatV1.11B39,2013-01-24 13:25:00,
2013-01-24 06:30:00,14.5,10.3,30.65,NNE,22,0.0,0.0,83,0.00,,,0.00,WeatherCatV1.11B39,2013-01-24 13:30:00,
2013-01-24 06:35:00,14.7,10.8,30.65,NNE,23,0.0,0.0,84,0.00,,,0.00,WeatherCatV1.11B39,2013-01-24 13:35:00,
2013-01-24 06:40:00,14.7,10.8,30.67,NNE,26,1.0,1.0,84,0.00,,,0.00,WeatherCatV1.11B39,2013-01-24 13:40:00,
2013-01-24 06:45:00,14.8,10.9,30.67,SE,128,1.0,1.0,84,0.00,,,0.00,WeatherCatV1.11B39,2013-01-24 13:45:00,
2013-01-24 06:50:00,14.8,10.9,30.67,South,180,2.0,3.0,84,0.00,,,0.00,WeatherCatV1.11B39,2013-01-24 13:50:00,
2013-01-24 06:55:00,14.5,10.6,30.67,SSE,166,2.0,4.0,84,0.00,,,0.00,WeatherCatV1.11B39,2013-01-24 13:55:00,
2013-01-24 07:00:00,14.3,10.1,30.67,ESE,113,1.0,3.0,83,0.00,,,0.00,WeatherCatV1.11B39,2013-01-24 14:00:00,
2013-01-24 07:05:00,14.5,10.3,30.67,SE,142,1.0,1.0,83,0.00,,,0.00,WeatherCatV1.11B39,2013-01-24 14:05:00,
2013-01-24 07:10:00,14.8,10.6,30.66,East,93,1.0,2.0,83,0.00,,,0.00,WeatherCatV1.11B39,2013-01-24 14:10:00,
2013-01-24 07:15:00,15.2,11.0,30.66,NNW,336,0.0,1.0,83,0.00,,,0.00,WeatherCatV1.11B39,2013-01-24 14:15:00,
2013-01-24 07:20:00,15.4,10.9,30.65,NNE,13,1.0,1.0,82,0.00,,,0.00,WeatherCatV1.11B39,2013-01-24 14:20:00,
2013-01-24 07:25:00,15.7,11.2,30.66,North,352,0.0,0.0,82,0.00,,,0.00,WeatherCatV1.11B39,2013-01-24 14:25:00,
2013-01-24 07:30:00,15.8,11.3,30.65,North,8,0.0,1.0,82,0.00,,,0.00,WeatherCatV1.11B39,2013-01-24 14:30:00,
2013-01-24 07:35:00,15.9,11.4,30.65,South,183,0.0,1.0,82,0.00,,,0.00,WeatherCatV1.11B39,2013-01-24 14:35:00,
2013-01-24 07:40:00,16.1,11.9,30.66,West,263,1.0,1.0,83,0.00,,,0.00,WeatherCatV1.11B39,2013-01-24 14:40:00,
2013-01-24 07:45:00,16.4,12.2,30.65,NNE,30,1.0,1.0,83,0.00,,,0.00,WeatherCatV1.11B39,2013-01-24 14:45:00,
2013-01-24 07:50:00,16.7,12.2,30.66,South,181,1.0,3.0,82,0.00,,,0.00,WeatherCatV1.11B39,2013-01-24 14:50:00,
2013-01-24 07:55:00,16.8,12.0,30.66,SW,224,1.0,2.0,81,0.00,,,0.00,WeatherCatV1.11B39,2013-01-24 14:55:00,
2013-01-24 08:00:00,16.8,12.3,30.66,SE,139,1.0,1.0,82,0.00,,,0.00,WeatherCatV1.11B39,2013-01-24 15:00:00,
2013-01-24 08:05:00,16.8,12.0,30.66,SSE,167,3.0,3.0,81,0.00,,,0.00,WeatherCatV1.11B39,2013-01-24 15:05:00,
2013-01-24 08:10:00,17.0,11.9,30.66,SSE,155,0.0,1.0,80,0.00,,,0.00,WeatherCatV1.11B39,2013-01-24 15:10:00,
2013-01-24 08:15:00,17.2,12.1,30.65,ESE,106,0.0,0.0,80,0.00,,,0.00,WeatherCatV1.11B39,2013-01-24 15:15:00,
2013-01-24 08:20:00,17.5,12.1,30.65,ESE,105,0.0,1.0,79,0.00,,,0.00,WeatherCatV1.11B39,2013-01-24 15:20:00,
2013-01-24 08:25:00,17.7,12.3,30.65,NNW,348,0.0,1.0,79,0.00,,,0.00,WeatherCatV1.11B39,2013-01-24 15:25:00,
2013-01-24 08:30:00,18.0,12.6,30.65,North,349,0.0,0.0,79,0.00,,,0.00,WeatherCatV1.11B39,2013-01-24 15:30:00,
2013-01-24 08:35:00,18.4,13.0,30.65,North,349,1.0,1.0,79,0.00,,,0.00,WeatherCatV1.11B39,2013-01-24 15:35:00,
2013-01-24 08:40:00,19.0,13.3,30.65,NW,326,0.0,0.0,78,0.00,,,0.00,WeatherCatV1.11B39,2013-01-24 15:40:00,
2013-01-24 08:45:00,19.4,13.4,30.64,North,5,0.0,0.0,77,0.00,,,0.00,WeatherCatV1.11B39,2013-01-24 15:45:00,
2013-01-24 08:50:00,19.8,13.5,30.64,ESE,119,1.0,2.0,76,0.00,,,0.00,WeatherCatV1.11B39,2013-01-24 15:50:00,
2013-01-24 08:55:00,20.2,13.9,30.64,SSE,153,1.0,1.0,76,0.00,,,0.00,WeatherCatV1.11B39,2013-01-24 15:55:00,
2013-01-24 09:00:00,20.7,14.1,30.64,NW,324,2.0,3.0,75,0.00,,,0.00,WeatherCatV1.11B39,2013-01-24 16:00:00,
2013-01-24 09:05:00,21.2,14.2,30.64,SE,131,1.0,1.0,74,0.00,,,0.00,WeatherCatV1.11B39,2013-01-24 16:05:00,
2013-01-24 09:10:00,21.7,14.7,30.63,SSW,194,1.0,2.0,74,0.00,,,0.00,WeatherCatV1.11B39,2013-01-24 16:10:00,
2013-01-24 09:15:00,21.9,14.3,30.63,WSW,255,0.0,2.0,72,0.00,,,0.00,WeatherCatV1.11B39,2013-01-24 16:15:00,
2013-01-24 09:20:00,22.3,14.7,30.63,WSW,256,0.0,1.0,72,0.00,,,0.00,WeatherCatV1.11B39,2013-01-24 16:20:00,
2013-01-24 09:25:00,23.1,15.1,30.63,SW,222,0.0,0.0,71,0.00,,,0.00,WeatherCatV1.11B39,2013-01-24 16:25:00,
2013-01-24 09:30:00,23.7,14.7,30.62,NNW,335,0.0,0.0,68,0.00,,,0.00,WeatherCatV1.11B39,2013-01-24 16:30:00,
2013-01-24 09:35:00,24.6,15.2,30.62,East,93,0.0,0.0,67,0.00,,,0.00,WeatherCatV1.11B39,2013-01-24 16:35:00,
2013-01-24 09:40:00,25.2,14.8,30.62,East,82,0.0,0.0,64,0.00,,,0.00,WeatherCatV1.11B39,2013-01-24 16:40:00,
2013-01-24 09:45:00,25.6,14.8,30.62,SE,127,2.0,2.0,63,0.00,,,0.00,WeatherCatV1.11B39,2013-01-24 16:45:00,
2013-01-24 09:50:00,25.4,14.2,30.62,SW,236,0.0,0.0,62,0.00,,,0.00,WeatherCatV1.11B39,2013-01-24 16:50:00,
2013-01-24 09:55:00,25.4,14.2,30.62,South,179,1.0,1.0,62,0.00,,,0.00,WeatherCatV1.11B39,2013-01-24 16:55:00,
2013-01-24 10:00:00,25.4,14.2,30.62,SSE,167,0.0,0.0,62,0.00,,,0.00,WeatherCatV1.11B39,2013-01-24 17:00:00,
2013-01-24 10:05:00,25.9,15.1,30.61,SW,233,1.0,1.0,63,0.00,,,0.00,WeatherCatV1.11B39,2013-01-24 17:05:00,
2013-01-24 10:10:00,26.5,14.9,30.61,SW,225,0.0,1.0,61,0.00,,,0.00,WeatherCatV1.11B39,2013-01-24 17:10:00,
2013-01-24 10:15:00,28.1,15.3,30.61,SE,138,1.0,1.0,58,0.00,,,0.00,WeatherCatV1.11B39,2013-01-24 17:15:00,
2013-01-24 10:20:00,28.7,14.6,30.61,ESE,118,2.0,3.0,55,0.00,,,0.00,WeatherCatV1.11B39,2013-01-24 17:20:00,
2013-01-24 10:25:00,28.3,14.6,30.61,SSE,160,2.0,2.0,56,0.00,,,0.00,WeatherCatV1.11B39,2013-01-24 17:25:00,
2013-01-24 10:30:00,28.6,15.3,30.61,West,266,0.0,0.0,57,0.00,,,0.00,WeatherCatV1.11B39,2013-01-24 17:30:00,
2013-01-24 10:35:00,29.1,15.0,30.60,ESE,115,1.0,1.0,55,0.00,,,0.00,WeatherCatV1.11B39,2013-01-24 17:35:00,
2013-01-24 10:40:00,29.5,14.9,30.59,SE,137,2.0,4.0,54,0.00,,,0.00,WeatherCatV1.11B39,2013-01-24 17:40:00,
2013-01-24 10:45:00,29.6,15.0,30.60,WSW,245,3.0,3.0,54,0.00,,,0.00,WeatherCatV1.11B39,2013-01-24 17:45:00,
2013-01-24 10:50:00,29.8,15.2,30.60,West,259,1.0,1.0,54,0.00,,,0.00,WeatherCatV1.11B39,2013-01-24 17:50:00,
2013-01-24 10:55:00,29.7,14.3,30.59,SW,230,0.0,1.0,52,0.00,,,0.00,WeatherCatV1.11B39,2013-01-24 17:55:00,
2013-01-24 11:00:00,29.8,14.8,30.58,ESE,110,3.0,4.0,53,0.00,,,0.00,WeatherCatV1.11B39,2013-01-24 18:00:00,
2013-01-24 11:05:00,29.8,14.8,30.59,SSE,158,2.0,2.0,53,0.00,,,0.00,WeatherCatV1.11B39,2013-01-24 18:05:00,
2013-01-24 11:10:00,29.8,14.8,30.58,SE,143,2.0,4.0,53,0.00,,,0.00,WeatherCatV1.11B39,2013-01-24 18:10:00,
2013-01-24 11:15:00,30.2,14.7,30.58,SE,141,0.0,1.0,52,0.00,,,0.00,WeatherCatV1.11B39,2013-01-24 18:15:00,
2013-01-24 11:20:00,30.6,15.1,30.57,West,277,2.0,2.0,52,0.00,,,0.00,WeatherCatV1.11B39,2013-01-24 18:20:00,
2013-01-24 11:25:00,31.4,15.4,30.57,South,169,2.0,3.0,51,0.00,,,0.00,WeatherCatV1.11B39,2013-01-24 18:25:00,
2013-01-24 11:30:00,32.2,15.2,30.57,SE,127,0.0,2.0,49,0.00,,,0.00,WeatherCatV1.11B39,2013-01-24 18:30:00,
2013-01-24 11:35:00,33.0,16.4,30.56,SSW,201,1.0,2.0,50,0.00,,,0.00,WeatherCatV1.11B39,2013-01-24 18:35:00,
2013-01-24 11:40:00,33.6,16.0,30.56,East,91,0.0,2.0,48,0.00,,,0.00,WeatherCatV1.11B39,2013-01-24 18:40:00,
2013-01-24 11:45:00,34.4,15.3,30.56,South,186,0.0,1.0,45,0.00,,,0.00,WeatherCatV1.11B39,2013-01-24 18:45:00,
2013-01-24 11:50:00,35.1,15.9,30.55,SSW,210,1.0,2.0,45,0.00,,,0.00,WeatherCatV1.11B39,2013-01-24 18:50:00,
2013-01-24 11:55:00,35.1,15.4,30.55,SSW,195,0.0,3.0,44,0.00,,,0.00,WeatherCatV1.11B39,2013-01-24 18:55:00,
2013-01-24 12:00:00,35.5,15.8,30.54,WSW,246,1.0,2.0,44,0.00,,,0.00,WeatherCatV1.11B39,2013-01-24 19:00:00,
2013-01-24 12:05:00,35.9,16.1,30.54,NNW,330,1.0,1.0,44,0.00,,,0.00,WeatherCatV1.11B39,2013-01-24 19:05:00,
2013-01-24 12:10:00,35.7,16.5,30.53,NW,308,0.0,2.0,45,0.00,,,0.00,WeatherCatV1.11B39,2013-01-24 19:10:00,
2013-01-24 12:15:00,36.3,16.5,30.53,ENE,74,0.0,2.0,44,0.00,,,0.00,WeatherCatV1.11B39,2013-01-24 19:15:00,
2013-01-24 12:20:00,36.3,17.0,30.53,NNW,340,2.0,2.0,45,0.00,,,0.00,WeatherCatV1.11B39,2013-01-24 19:20:00,
2013-01-24 12:25:00,36.1,17.3,30.53,ENE,67,2.0,4.0,46,0.00,,,0.00,WeatherCatV1.11B39,2013-01-24 19:25:00,
2013-01-24 12:30:00,35.7,16.5,30.52,NE,36,3.0,4.0,45,0.00,,,0.00,WeatherCatV1.11B39,2013-01-24 19:30:00,
2013-01-24 12:35:00,35.6,17.4,30.53,NNE,15,1.0,3.0,47,0.00,,,0.00,WeatherCatV1.11B39,2013-01-24 19:35:00,
2013-01-24 12:40:00,35.2,18.0,30.52,NNW,345,1.0,1.0,49,0.00,,,0.00,WeatherCatV1.11B39,2013-01-24 19:40:00,
2013-01-24 12:45:00,35.1,16.9,30.52,North,352,2.0,3.0,47,0.00,,,0.00,WeatherCatV1.11B39,2013-01-24 19:45:00,
2013-01-24 12:50:00,35.1,17.4,30.51,NNW,347,2.0,4.0,48,0.00,,,0.00,WeatherCatV1.11B39,2013-01-24 19:50:00,
2013-01-24 12:55:00,35.4,17.7,30.51,NW,311,1.0,1.0,48,0.00,,,0.00,WeatherCatV1.11B39,2013-01-24 19:55:00,
2013-01-24 13:00:00,35.9,18.1,30.51,NW,314,1.0,2.0,48,0.00,,,0.00,WeatherCatV1.11B39,2013-01-24 20:00:00,
2013-01-24 13:05:00,36.0,18.2,30.51,SE,129,0.0,0.0,48,0.00,,,0.00,WeatherCatV1.11B39,2013-01-24 20:05:00,
2013-01-24 13:10:00,35.9,17.7,30.51,NNE,12,3.0,3.0,47,0.00,,,0.00,WeatherCatV1.11B39,2013-01-24 20:10:00,
2013-01-24 13:15:00,35.6,16.9,30.51,NE,43,2.0,3.0,46,0.00,,,0.00,WeatherCatV1.11B39,2013-01-24 20:15:00,
2013-01-24 13:20:00,35.5,16.8,30.51,NNW,345,0.0,1.0,46,0.00,,,0.00,WeatherCatV1.11B39,2013-01-24 20:20:00,
2013-01-24 13:25:00,35.6,17.4,30.51,WNW,287,0.0,1.0,47,0.00,,,0.00,WeatherCatV1.11B39,2013-01-24 20:25:00,
2013-01-24 13:30:00,35.6,17.4,30.51,WNW,288,0.0,0.0,47,0.00,,,0.00,WeatherCatV1.11B39,2013-01-24 20:30:00,
2013-01-24 13:35:00,35.8,17.1,30.50,SSW,195,1.0,2.0,46,0.00,,,0.00,WeatherCatV1.11B39,2013-01-24 20:35:00,
2013-01-24 13:40:00,36.1,17.3,30.50,SE,129,0.0,0.0,46,0.00,,,0.00,WeatherCatV1.11B39,2013-01-24 20:40:00,
2013-01-24 13:45:00,36.1,17.3,30.50,SSE,167,1.0,2.0,46,0.00,,,0.00,WeatherCatV1.11B39,2013-01-24 20:45:00,
2013-01-24 13:50:00,36.4,18.6,30.49,SSW,193,2.0,4.0,48,0.00,,,0.00,WeatherCatV1.11B39,2013-01-24 20:50:00,
2013-01-24 13:55:00,36.8,19.5,30.50,SW,214,1.0,4.0,49,0.00,,,0.00,WeatherCatV1.11B39,2013-01-24 20:55:00,
2013-01-24 14:00:00,37.2,19.8,30.50,WSW,239,2.0,4.0,49,0.00,,,0.00,WeatherCatV1.11B39,2013-01-24 21:00:00,
2013-01-24 14:05:00,37.3,19.4,30.50,SSE,154,0.0,4.0,48,0.00,,,0.00,WeatherCatV1.11B39,2013-01-24 21:05:00,
2013-01-24 14:10:00,37.5,19.6,30.49,SSW,204,0.0,3.0,48,0.00,,,0.00,WeatherCatV1.11B39,2013-01-24 21:10:00,
2013-01-24 14:15:00,37.7,22.1,30.49,NW,314,0.0,3.0,53,0.00,,,0.00,WeatherCatV1.11B39,2013-01-24 21:15:00,
2013-01-24 14:20:00,37.9,24.5,30.49,NNE,19,1.0,5.0,58,0.00,,,0.00,WeatherCatV1.11B39,2013-01-24 21:20:00,
2013-01-24 14:25:00,38.1,25.1,30.49,WSW,248,1.0,1.0,59,0.00,,,0.00,WeatherCatV1.11B39,2013-01-24 21:25:00,
2013-01-24 14:30:00,38.4,25.3,30.49,NE,34,0.0,0.0,59,0.00,,,0.00,WeatherCatV1.11B39,2013-01-24 21:30:00,
2013-01-24 14:35:00,38.6,25.5,30.49,ESE,122,1.0,1.0,59,0.00,,,0.00,WeatherCatV1.11B39,2013-01-24 21:35:00,
2013-01-24 14:40:00,38.6,27.5,30.49,WNW,294,3.0,5.0,64,0.00,,,0.00,WeatherCatV1.11B39,2013-01-24 21:40:00,
2013-01-24 14:45:00,38.6,28.6,30.49,NW,309,0.0,2.0,67,0.00,,,0.00,WeatherCatV1.11B39,2013-01-24 21:45:00,
2013-01-24 14:50:00,38.6,28.6,30.48,WNW,290,4.0,6.0,67,0.00,,,0.00,WeatherCatV1.11B39,2013-01-24 21:50:00,
2013-01-24 14:55:00,38.7,28.7,30.49,West,273,0.0,0.0,67,0.00,,,0.00,WeatherCatV1.11B39,2013-01-24 21:55:00,
2013-01-24 15:00:00,38.9,28.9,30.49,North,11,0.0,1.0,67,0.00,,,0.00,WeatherCatV1.11B39,2013-01-24 22:00:00,
2013-01-24 15:05:00,39.0,28.6,30.49,NW,323,0.0,1.0,66,0.00,,,0.00,WeatherCatV1.11B39,2013-01-24 22:05:00,
2013-01-24 15:10:00,39.1,28.7,30.49,WNW,291,0.0,0.0,66,0.00,,,0.00,WeatherCatV1.11B39,2013-01-24 22:10:00,
2013-01-24 15:15:00,39.3,28.5,30.49,WNW,291,0.0,0.0,65,0.00,,,0.00,WeatherCatV1.11B39,2013-01-24 22:15:00,
2013-01-24 15:20:00,39.5,28.7,30.50,WNW,291,0.0,1.0,65,0.00,,,0.00,WeatherCatV1.11B39,2013-01-24 22:20:00,
2013-01-24 15:25:00,39.5,28.7,30.50,NNW,342,1.0,2.0,65,0.00,,,0.00,WeatherCatV1.11B39,2013-01-24 22:25:00,
2013-01-24 15:30:00,39.5,28.7,30.49,WNW,288,0.0,0.0,65,0.00,,,0.00,WeatherCatV1.11B39,2013-01-24 22:30:00,
2013-01-24 15:35:00,39.5,29.1,30.49,North,1,1.0,2.0,66,0.00,,,0.00,WeatherCatV1.11B39,2013-01-24 22:35:00,
2013-01-24 15:40:00,39.4,29.0,30.49,NNW,342,0.0,3.0,66,0.00,,,0.00,WeatherCatV1.11B39,2013-01-24 22:40:00,
2013-01-24 15:45:00,39.3,29.3,30.49,NNW,329,1.0,3.0,67,0.00,,,0.00,WeatherCatV1.11B39,2013-01-24 22:45:00,
2013-01-24 15:50:00,39.3,28.5,30.49,WNW,288,1.0,1.0,65,0.00,,,0.00,WeatherCatV1.11B39,2013-01-24 22:50:00,
2013-01-24 15:55:00,39.4,28.2,30.49,WNW,294,0.0,0.0,64,0.00,,,0.00,WeatherCatV1.11B39,2013-01-24 22:55:00,
2013-01-24 16:00:00,39.6,29.2,30.49,NNW,336,0.0,1.0,66,0.00,,,0.00,WeatherCatV1.11B39,2013-01-24 23:00:00,
2013-01-24 16:05:00,39.6,29.6,30.49,North,9,0.0,1.0,67,0.00,,,0.00,WeatherCatV1.11B39,2013-01-24 23:05:00,
2013-01-24 16:10:00,39.1,29.4,30.49,North,0,0.0,1.0,68,0.00,,,0.00,WeatherCatV1.11B39,2013-01-24 23:10:00,
2013-01-24 16:15:00,38.9,29.6,30.49,WNW,293,1.0,1.0,69,0.00,,,0.00,WeatherCatV1.11B39,2013-01-24 23:15:00,
2013-01-24 16:20:00,38.9,29.3,30.49,WNW,295,0.0,0.0,68,0.00,,,0.00,WeatherCatV1.11B39,2013-01-24 23:20:00,
2013-01-24 16:25:00,39.0,29.3,30.49,WNW,295,0.0,1.0,68,0.00,,,0.00,WeatherCatV1.11B39,2013-01-24 23:25:00,
2013-01-24 16:30:00,38.9,29.6,30.49,WNW,284,0.0,1.0,69,0.00,,,0.00,WeatherCatV1.11B39,2013-01-24 23:30:00,
2013-01-24 16:35:00,38.8,29.9,30.48,NNW,335,1.0,1.0,70,0.00,,,0.00,WeatherCatV1.11B39,2013-01-24 23:35:00,
2013-01-24 16:40:00,38.6,30.0,30.48,NNW,335,0.0,0.0,71,0.00,,,0.00,WeatherCatV1.11B39,2013-01-24 23:40:00,
2013-01-24 16:45:00,38.4,29.8,30.49,WNW,297,0.0,2.0,71,0.00,,,0.00,WeatherCatV1.11B39,2013-01-24 23:45:00,
2013-01-24 16:50:00,38.1,29.9,30.48,WNW,284,1.0,1.0,72,0.00,,,0.00,WeatherCatV1.11B39,2013-01-24 23:50:00,
2013-01-24 16:55:00,37.9,30.0,30.48,West,274,0.0,2.0,73,0.00,,,0.00,WeatherCatV1.11B39,2013-01-24 23:55:00,
2013-01-24 17:00:00,37.6,30.1,30.49,WNW,300,0.0,3.0,74,0.00,,,0.00,WeatherCatV1.11B39,2013-01-25 00:00:00,
2013-01-24 17:05:00,37.3,30.1,30.49,WNW,290,1.0,2.0,75,0.00,,,0.00,WeatherCatV1.11B39,2013-01-25 00:05:00,
2013-01-24 17:10:00,37.1,30.2,30.49,NNW,332,1.0,2.0,76,0.00,,,0.00,WeatherCatV1.11B39,2013-01-25 00:10:00,
2013-01-24 17:15:00,37.0,30.5,30.49,WNW,297,0.0,1.0,77,0.00,,,0.00,WeatherCatV1.11B39,2013-01-25 00:15:00,
2013-01-24 17:20:00,36.8,30.3,30.48,NW,322,0.0,2.0,77,0.00,,,0.00,WeatherCatV1.11B39,2013-01-25 00:20:00,
2013-01-24 17:25:00,36.6,30.1,30.49,NW,316,0.0,2.0,77,0.00,,,0.00,WeatherCatV1.11B39,2013-01-25 00:25:00,
2013-01-24 17:30:00,36.6,30.4,30.49,WNW,282,2.0,2.0,78,0.00,,,0.00,WeatherCatV1.11B39,2013-01-25 00:30:00,
2013-01-24 17:35:00,36.5,30.3,30.49,West,281,1.0,2.0,78,0.00,,,0.00,WeatherCatV1.11B39,2013-01-25 00:35:00,
2013-01-24 17:40:00,36.3,30.4,30.50,NW,312,1.0,4.0,79,0.00,,,0.00,WeatherCatV1.11B39,2013-01-25 00:40:00,
2013-01-24 17:45:00,36.2,30.6,30.50,NW,311,2.0,3.0,80,0.00,,,0.00,WeatherCatV1.11B39,2013-01-25 00:45:00,
2013-01-24 17:50:00,36.0,30.4,30.50,WNW,292,3.0,3.0,80,0.00,,,0.00,WeatherCatV1.11B39,2013-01-25 00:50:00,
2013-01-24 17:55:00,35.8,30.6,30.50,West,276,2.0,4.0,81,0.00,,,0.00,WeatherCatV1.11B39,2013-01-25 00:55:00,
2013-01-24 18:00:00,35.6,30.7,30.51,WNW,301,4.0,4.0,82,0.00,,,0.00,WeatherCatV1.11B39,2013-01-25 01:00:00,
2013-01-24 18:05:00,35.3,30.7,30.51,NW,311,2.0,4.0,83,0.00,,,0.00,WeatherCatV1.11B39,2013-01-25 01:05:00,
2013-01-24 18:10:00,35.1,31.1,30.52,WNW,291,2.0,2.0,85,0.00,,,0.00,WeatherCatV1.11B39,2013-01-25 01:10:00,
2013-01-24 18:15:00,34.7,31.2,30.52,WNW,293,1.0,3.0,87,0.00,,,0.00,WeatherCatV1.11B39,2013-01-25 01:15:00,
2013-01-24 18:20:00,34.3,31.1,30.52,WNW,290,2.0,2.0,88,0.00,,,0.00,WeatherCatV1.11B39,2013-01-25 01:20:00,
2013-01-24 18:25:00,34.1,31.2,30.52,NNW,329,1.0,3.0,89,0.00,,,0.00,WeatherCatV1.11B39,2013-01-25 01:25:00,
2013-01-24 18:30:00,33.9,31.3,30.52,WNW,300,0.0,1.0,90,0.00,,,0.00,WeatherCatV1.11B39,2013-01-25 01:30:00,
2013-01-24 18:35:00,33.7,31.1,30.52,WNW,300,0.0,0.0,90,0.00,,,0.00,WeatherCatV1.11B39,2013-01-25 01:35:00,
2013-01-24 18:40:00,33.5,31.2,30.53,NNW,332,0.0,1.0,91,0.00,,,0.00,WeatherCatV1.11B39,2013-01-25 01:40:00,
2013-01-24 18:45:00,33.3,31.2,30.53,NNW,332,0.0,1.0,92,0.00,,,0.00,WeatherCatV1.11B39,2013-01-25 01:45:00,
2013-01-24 18:50:00,33.2,31.1,30.53,WNW,284,0.0,1.0,92,0.00,,,0.00,WeatherCatV1.11B39,2013-01-25 01:50:00,
2013-01-24 18:55:00,33.1,31.3,30.53,WNW,284,0.0,0.0,93,0.00,,,0.00,WeatherCatV1.11B39,2013-01-25 01:55:00,
2013-01-24 19:00:00,33.1,31.3,30.53,North,7,0.0,1.0,93,0.00,,,0.00,WeatherCatV1.11B39,2013-01-25 02:00:00,
2013-01-24 19:05:00,33.0,31.2,30.53,NNE,30,0.0,1.0,93,0.00,,,0.00,WeatherCatV1.11B39,2013-01-25 02:05:00,
2013-01-24 19:10:00,32.9,31.1,30.53,NNE,29,0.0,0.0,93,0.00,,,0.00,WeatherCatV1.11B39,2013-01-25 02:10:00,
2013-01-24 19:15:00,32.9,31.1,30.53,NNE,30,0.0,0.0,93,0.00,,,0.00,WeatherCatV1.11B39,2013-01-25 02:15:00,
2013-01-24 19:20:00,32.8,31.3,30.53,North,11,1.0,1.0,94,0.00,,,0.00,WeatherCatV1.11B39,2013-01-25 02:20:00,
2013-01-24 19:25:00,32.9,31.4,30.53,North,352,0.0,1.0,94,0.00,,,0.00,WeatherCatV1.11B39,2013-01-25 02:25:00,
2013-01-24 19:30:00,32.9,31.4,30.54,North,352,0.0,0.0,94,0.00,,,0.01,WeatherCatV1.11B39,2013-01-25 02:30:00,
2013-01-24 19:35:00,32.8,31.3,30.54,North,352,0.0,0.0,94,0.00,,,0.01,WeatherCatV1.11B39,2013-01-25 02:35:00,
2013-01-24 19:40:00,32.8,31.3,30.55,North,352,0.0,0.0,94,0.00,,,0.01,WeatherCatV1.11B39,2013-01-25 02:40:00,
2013-01-24 19:45:00,32.7,31.2,30.55,North,352,0.0,0.0,94,0.00,,,0.01,WeatherCatV1.11B39,2013-01-25 02:45:00,
2013-01-24 19:50:00,32.7,31.2,30.55,North,352,0.0,0.0,94,0.00,,,0.01,WeatherCatV1.11B39,2013-01-25 02:50:00,
2013-01-24 19:55:00,32.6,31.1,30.54,North,352,0.0,0.0,94,0.00,,,0.01,WeatherCatV1.11B39,2013-01-25 02:55:00,
2013-01-24 20:00:00,32.6,31.3,30.54,North,352,0.0,0.0,95,0.00,,,0.01,WeatherCatV1.11B39,2013-01-25 03:00:00,
2013-01-24 20:05:00,32.6,31.3,30.55,North,352,0.0,0.0,95,0.00,,,0.01,WeatherCatV1.11B39,2013-01-25 03:05:00,
2013-01-24 20:10:00,32.6,31.3,30.54,North,352,0.0,0.0,95,0.00,,,0.01,WeatherCatV1.11B39,2013-01-25 03:10:00,
2013-01-24 20:15:00,32.6,31.3,30.54,North,352,0.0,0.0,95,0.00,,,0.01,WeatherCatV1.11B39,2013-01-25 03:15:00,
2013-01-24 20:20:00,32.6,31.3,30.54,North,352,0.0,0.0,95,0.00,,,0.01,WeatherCatV1.11B39,2013-01-25 03:20:00,
2013-01-24 20:25:00,32.7,31.4,30.54,North,352,0.0,0.0,95,0.00,,,0.01,WeatherCatV1.11B39,2013-01-25 03:25:00,
2013-01-24 20:30:00,32.7,31.4,30.54,North,352,0.0,0.0,95,0.00,,,0.01,WeatherCatV1.11B39,2013-01-25 03:30:00,
2013-01-24 20:35:00,32.6,31.3,30.54,North,352,0.0,0.0,95,0.00,,,0.01,WeatherCatV1.11B39,2013-01-25 03:35:00,
2013-01-24 20:40:00,32.6,31.3,30.53,North,352,0.0,0.0,95,0.00,,,0.01,WeatherCatV1.11B39,2013-01-25 03:40:00,
2013-01-24 20:45:00,32.6,31.3,30.53,North,352,0.0,0.0,95,0.00,,,0.01,WeatherCatV1.11B39,2013-01-25 03:45:00,
2013-01-24 20:50:00,32.6,31.3,30.53,NNW,329,0.0,1.0,95,0.00,,,0.01,WeatherCatV1.11B39,2013-01-25 03:50:00,
2013-01-24 20:55:00,32.5,31.2,30.53,West,278,0.0,0.0,95,0.00,,,0.01,WeatherCatV1.11B39,2013-01-25 03:55:00,
2013-01-24 21:00:00,32.5,31.2,30.53,WNW,282,0.0,0.0,95,0.00,,,0.01,WeatherCatV1.11B39,2013-01-25 04:00:00,
2013-01-24 21:05:00,32.5,31.2,30.53,WNW,283,0.0,0.0,95,0.00,,,0.01,WeatherCatV1.11B39,2013-01-25 04:05:00,
2013-01-24 21:10:00,32.5,31.2,30.54,WNW,283,0.0,0.0,95,0.00,,,0.01,WeatherCatV1.11B39,2013-01-25 04:10:00,
2013-01-24 21:15:00,32.5,31.2,30.54,North,6,0.0,0.0,95,0.00,,,0.01,WeatherCatV1.11B39,2013-01-25 04:15:00,
2013-01-24 21:20:00,32.5,31.2,30.54,North,7,0.0,0.0,95,0.00,,,0.01,WeatherCatV1.11B39,2013-01-25 04:20:00,
2013-01-24 21:25:00,32.5,31.2,30.54,North,6,0.0,0.0,95,0.00,,,0.01,WeatherCatV1.11B39,2013-01-25 04:25:00,
2013-01-24 21:30:00,32.4,31.1,30.54,North,358,0.0,1.0,95,0.00,,,0.01,WeatherCatV1.11B39,2013-01-25 04:30:00,
2013-01-24 21:35:00,32.4,31.1,30.54,North,358,0.0,1.0,95,0.00,,,0.01,WeatherCatV1.11B39,2013-01-25 04:35:00,
2013-01-24 21:40:00,32.3,31.0,30.54,NNE,12,0.0,2.0,95,0.00,,,0.01,WeatherCatV1.11B39,2013-01-25 04:40:00,
2013-01-24 21:45:00,32.3,31.3,30.54,NNE,12,0.0,0.0,96,0.00,,,0.01,WeatherCatV1.11B39,2013-01-25 04:45:00,
2013-01-24 21:50:00,32.2,31.2,30.54,North,359,0.0,1.0,96,0.00,,,0.01,WeatherCatV1.11B39,2013-01-25 04:50:00,
2013-01-24 21:55:00,32.2,31.2,30.55,North,358,0.0,0.0,96,0.00,,,0.01,WeatherCatV1.11B39,2013-01-25 04:55:00,
2013-01-24 22:00:00,32.3,31.3,30.54,WNW,295,0.0,0.0,96,0.00,,,0.01,WeatherCatV1.11B39,2013-01-25 05:00:00,
2013-01-24 22:01:00,32.2,31.2,30.54,WNW,295,0.0,0.0,96,0.00,,,0.01,WeatherCatV1.11B39,2013-01-25 05:01:00,
2013-01-24 22:06:00,32.2,31.2,30.54,WNW,295,0.0,0.0,96,0.00,,,0.01,WeatherCatV1.11B39,2013-01-25 05:06:00,
2013-01-24 22:11:00,32.3,31.3,30.54,WNW,295,0.0,0.0,96,0.00,,,0.01,WeatherCatV1.11B39,2013-01-25 05:11:00,
2013-01-24 22:16:00,32.3,31.3,30.53,SW,235,2.0,3.0,96,0.00,,,0.01,WeatherCatV1.11B39,2013-01-25 05:16:00,
2013-01-24 22:21:00,32.4,31.4,30.53,SW,224,0.0,0.0,96,0.00,,,0.01,WeatherCatV1.11B39,2013-01-25 05:21:00,
2013-01-24 22:26:00,32.4,31.4,30.53,SW,224,0.0,0.0,96,0.00,,,0.01,WeatherCatV1.11B39,2013-01-25 05:26:00,
2013-01-24 22:31:00,32.4,31.4,30.52,SW,224,0.0,0.0,96,0.00,,,0.01,WeatherCatV1.11B39,2013-01-25 05:31:00,
2013-01-24 22:36:00,32.4,31.4,30.53,SW,224,0.0,1.0,96,0.00,,,0.01,WeatherCatV1.11B39,2013-01-25 05:36:00,
2013-01-24 22:41:00,32.4,31.4,30.53,SW,224,0.0,0.0,96,0.00,,,0.01,WeatherCatV1.11B39,2013-01-25 05:41:00,
2013-01-24 22:46:00,32.4,31.4,30.53,SW,224,0.0,1.0,96,0.00,,,0.01,WeatherCatV1.11B39,2013-01-25 05:46:00,
2013-01-24 22:51:00,32.4,31.4,30.54,SW,224,0.0,0.0,96,0.00,,,0.01,WeatherCatV1.11B39,2013-01-25 05:51:00,
2013-01-24 22:56:00,32.4,31.4,30.54,SW,224,0.0,0.0,96,0.00,,,0.01,WeatherCatV1.11B39,2013-01-25 05:56:00,
2013-01-24 23:01:00,32.4,31.4,30.55,SW,224,0.0,0.0,96,0.00,,,0.01,WeatherCatV1.11B39,2013-01-25 06:01:00,
2013-01-24 23:06:00,32.3,31.3,30.55,SW,224,0.0,1.0,96,0.00,,,0.01,WeatherCatV1.11B39,2013-01-25 06:06:00,
2013-01-24 23:11:00,32.3,31.3,30.55,SW,224,0.0,0.0,96,0.00,,,0.01,WeatherCatV1.11B39,2013-01-25 06:11:00,
2013-01-24 23:16:00,32.2,31.2,30.55,SW,224,0.0,1.0,96,0.00,,,0.01,WeatherCatV1.11B39,2013-01-25 06:16:00,
2013-01-24 23:21:00,32.2,31.2,30.56,North,352,0.0,1.0,96,0.00,,,0.01,WeatherCatV1.11B39,2013-01-25 06:21:00,
2013-01-24 23:26:00,32.2,31.2,30.55,North,353,0.0,0.0,96,0.00,,,0.01,WeatherCatV1.11B39,2013-01-25 06:26:00,
2013-01-24 23:31:00,32.1,31.1,30.55,North,352,0.0,0.0,96,0.00,,,0.01,WeatherCatV1.11B39,2013-01-25 06:31:00,
2013-01-24 23:36:00,32.1,31.1,30.55,North,352,0.0,0.0,96,0.00,,,0.01,WeatherCatV1.11B39,2013-01-25 06:36:00,
2013-01-24 23:41:00,32.1,31.1,30.54,North,353,0.0,0.0,96,0.00,,,0.01,WeatherCatV1.11B39,2013-01-25 06:41:00,
2013-01-24 23:46:00,32.1,31.1,30.54,North,352,0.0,0.0,96,0.00,,,0.01,WeatherCatV1.11B39,2013-01-25 06:46:00,
2013-01-24 23:51:00,32.1,31.1,30.54,North,353,0.0,0.0,96,0.00,,,0.01,WeatherCatV1.11B39,2013-01-25 06:51:00,
2013-01-24 23:56:00,32.1,31.1,30.54,NNE,18,0.0,0.0,96,0.00,,,0.01,WeatherCatV1.11B39,2013-01-25 06:56:00,